Time;durP1;ratioP1;P1;durP2;ratioP2;P2;SDS_P1;SDS_P2;PMS_P1;PMS_P2;Temp;Humidity;BMP_temperature;BMP_pressure;BME280_temperature;BME280_humidity;BME280_pressure;Samples;Min_cycle;Max_cycle;Signal;HPM_P1;HPM_P2
2022/12/31 00:00:41;;;;;;;69.45;38.72;;;;;;;6.75;nan;96076.91;5047274;28;20203;-58
2022/12/31 00:03:09;;;;;;;79.30;38.67;;;;;;;6.82;nan;96074.38;5044624;28;20206;-58
2022/12/31 00:05:37;;;;;;;83.90;40.83;;;;;;;6.87;nan;96071.84;5047987;28;20213;-59
2022/12/31 00:08:03;;;;;;;82.72;43.47;;;;;;;6.90;nan;96068.47;5047617;28;20248;-57
2022/12/31 00:10:38;;;;;;;85.30;44.08;;;;;;;6.99;nan;96066.72;5047776;28;20271;-58
2022/12/31 00:13:05;;;;;;;84.80;43.58;;;;;;;7.03;nan;96063.34;5044804;28;20228;-60
2022/12/31 00:15:32;;;;;;;89.53;44.15;;;;;;;7.18;nan;96060.75;5047343;28;20205;-58
2022/12/31 00:17:58;;;;;;;113.13;52.95;;;;;;;7.05;nan;96063.34;5047068;28;20193;-58
2022/12/31 00:20:25;;;;;;;115.80;57.10;;;;;;;6.88;nan;96075.22;5047228;28;20633;-59
2022/12/31 00:22:52;;;;;;;103.97;52.90;;;;;;;6.89;nan;96072.69;5046592;28;20298;-59
2022/12/31 00:25:19;;;;;;;107.13;50.42;;;;;;;6.98;nan;96074.31;5047602;28;20263;-58
2022/12/31 00:27:47;;;;;;;116.03;53.85;;;;;;;7.05;nan;96068.41;5047487;28;20226;-59
2022/12/31 00:30:14;;;;;;;106.53;50.05;;;;;;;7.21;nan;96080.13;5044091;28;20206;-59
2022/12/31 00:32:41;;;;;;;103.30;50.13;;;;;;;7.27;nan;96077.56;5046268;28;20224;-57
2022/12/31 00:35:08;;;;;;;96.97;45.22;;;;;;;7.40;nan;96085.97;5044424;28;20226;-59
2022/12/31 00:37:35;;;;;;;88.05;42.75;;;;;;;7.24;nan;96087.69;5048336;28;20209;-58
2022/12/31 00:40:02;;;;;;;88.90;44.17;;;;;;;7.22;nan;96104.56;5049450;28;20202;-58
2022/12/31 00:42:29;;;;;;;80.72;42.90;;;;;;;7.46;nan;96104.44;5048523;28;20194;-58
2022/12/31 00:44:57;;;;;;;76.72;40.72;;;;;;;7.42;nan;96107.84;5044746;28;20523;-59
2022/12/31 00:47:25;;;;;;;85.32;45.03;;;;;;;7.39;nan;96110.41;5047718;28;20206;-58
2022/12/31 00:49:51;;;;;;;79.95;45.17;;;;;;;7.35;nan;96106.22;5047640;28;20197;-58
2022/12/31 00:52:18;;;;;;;88.82;43.35;;;;;;;7.18;nan;96113.00;5048217;28;20204;-64
2022/12/31 00:54:45;;;;;;;80.47;43.67;;;;;;;6.95;nan;96086.97;5043407;28;20214;-59
2022/12/31 00:57:12;;;;;;;85.72;45.28;;;;;;;6.96;nan;96112.22;5045009;28;20206;-57
2022/12/31 00:59:39;;;;;;;84.13;42.75;;;;;;;6.79;nan;96114.81;5045930;28;20202;-58
2022/12/31 01:02:07;;;;;;;75.80;41.92;;;;;;;6.80;nan;96115.66;5045159;28;20206;-59
2022/12/31 01:04:33;;;;;;;84.22;44.30;;;;;;;6.78;nan;96122.38;5043975;28;20206;-59
2022/12/31 01:07:00;;;;;;;78.30;40.22;;;;;;;6.91;nan;96113.13;5046008;28;20202;-58
2022/12/31 01:09:27;;;;;;;69.30;37.95;;;;;;;6.66;nan;96092.94;5045979;28;20703;-58
2022/12/31 01:11:54;;;;;;;72.65;38.65;;;;;;;6.76;nan;96116.50;5047364;28;20667;-59
2022/12/31 01:14:20;;;;;;;65.20;37.72;;;;;;;6.69;nan;96123.22;5044167;28;20218;-58
2022/12/31 01:16:48;;;;;;;75.03;39.78;;;;;;;6.64;nan;96126.63;5044128;28;20675;-58
2022/12/31 01:19:20;;;;;;;79.25;39.00;;;;;;;6.58;nan;96127.47;5044896;28;20559;-63
2022/12/31 01:21:48;;;;;;;69.20;37.70;;;;;;;6.57;nan;96128.31;5047014;28;20233;-57
2022/12/31 01:24:15;;;;;;;72.05;39.65;;;;;;;6.54;nan;96130.84;5046157;28;20285;-57
2022/12/31 01:26:42;;;;;;;72.03;38.95;;;;;;;6.57;nan;96133.38;5047916;28;20212;-57
2022/12/31 01:29:10;;;;;;;71.30;39.83;;;;;;;6.47;nan;96127.47;5047528;28;20233;-57
2022/12/31 01:31:38;;;;;;;74.18;40.97;;;;;;;6.35;nan;96129.19;5049011;28;20205;-61
2022/12/31 01:34:06;;;;;;;78.70;41.95;;;;;;;6.36;nan;96128.34;5047264;28;20229;-60
2022/12/31 01:36:35;;;;;;;73.20;41.47;;;;;;;6.23;nan;96129.16;5047592;28;20206;-59
2022/12/31 01:39:05;;;;;;;88.85;42.92;;;;;;;6.18;nan;96138.44;5048296;28;20202;-59
2022/12/31 01:41:33;;;;;;;70.07;41.67;;;;;;;5.93;nan;96133.38;5048565;28;20746;-59
2022/12/31 01:44:01;;;;;;;77.18;42.15;;;;;;;5.87;nan;96132.47;5047831;28;20226;-59
2022/12/31 01:46:35;;;;;;;85.18;44.03;;;;;;;5.90;nan;96137.56;5048311;28;20255;-59
2022/12/31 01:49:09;;;;;;;83.47;42.23;;;;;;;5.86;nan;96134.16;5048765;28;20232;-59
2022/12/31 01:51:38;;;;;;;78.57;42.35;;;;;;;5.82;nan;96140.03;5047556;28;20206;-60
2022/12/31 01:54:10;;;;;;;73.47;40.90;;;;;;;5.83;nan;96144.22;5047270;28;20568;-59
2022/12/31 01:56:39;;;;;;;78.00;42.67;;;;;;;5.77;nan;96147.59;5047142;28;20213;-58
2022/12/31 01:59:10;;;;;;;87.95;42.15;;;;;;;5.80;nan;96149.28;5048507;28;20280;-59
2022/12/31 02:01:38;;;;;;;69.60;40.47;;;;;;;5.79;nan;96140.88;5047263;28;20209;-58
2022/12/31 02:04:09;;;;;;;68.68;39.10;;;;;;;5.86;nan;96144.25;5048075;28;20210;-59
2022/12/31 02:06:41;;;;;;;69.88;39.50;;;;;;;5.94;nan;96144.31;5047159;28;21153;-57
2022/12/31 02:09:08;;;;;;;72.32;39.35;;;;;;;5.94;nan;96150.16;5048294;28;20757;-59
2022/12/31 02:11:36;;;;;;;68.00;39.45;;;;;;;5.92;nan;96149.34;5047493;28;20797;-59
2022/12/31 02:14:07;;;;;;;75.45;41.55;;;;;;;5.90;nan;96148.50;5046417;28;20206;-58
2022/12/31 02:16:42;;;;;;;77.97;41.47;;;;;;;5.88;nan;96145.09;5047692;28;20687;-59
2022/12/31 02:19:41;;;;;;;72.18;42.05;;;;;;;5.82;nan;96158.53;5048093;28;20204;-59
2022/12/31 02:22:21;;;;;;;75.80;41.58;;;;;;;5.81;nan;96148.44;5048565;28;20350;-58
2022/12/31 02:25:09;;;;;;;84.25;44.28;;;;;;;5.88;nan;96149.28;5046845;28;20205;-63
2022/12/31 02:27:47;;;;;;;97.75;56.20;;;;;;;5.85;nan;96152.66;5046743;28;20262;-59
2022/12/31 02:30:18;;;;;;;145.93;81.75;;;;;;;5.85;nan;96144.25;5046969;28;20229;-59
2022/12/31 02:32:54;;;;;;;156.73;96.50;;;;;;;5.87;nan;96158.53;5047627;28;20209;-58
2022/12/31 02:35:27;;;;;;;162.27;99.70;;;;;;;5.93;nan;96156.06;5046468;28;20239;-62
2022/12/31 02:38:00;;;;;;;156.82;96.03;;;;;;;6.05;nan;96162.81;5046677;28;20901;-59
2022/12/31 02:40:27;;;;;;;143.60;84.38;;;;;;;6.01;nan;96161.94;5047325;28;20673;-60
2022/12/31 02:42:54;;;;;;;131.60;76.05;;;;;;;6.01;nan;96158.59;5047332;28;20206;-61
2022/12/31 02:45:28;;;;;;;114.68;70.10;;;;;;;5.53;nan;96060.94;5046482;28;20202;-59
2022/12/31 02:48:07;;;;;;;118.85;66.85;;;;;;;6.35;nan;96167.03;5046708;28;20653;-59
2022/12/31 02:50:54;;;;;;;116.65;66.55;;;;;;;6.37;nan;96166.22;5046572;28;20205;-59
2022/12/31 02:53:36;;;;;;;122.50;70.22;;;;;;;6.36;nan;96172.09;5047714;28;21960;-58
2022/12/31 02:56:09;;;;;;;119.78;66.85;;;;;;;6.30;nan;96169.56;5045945;28;21145;-61
2022/12/31 03:04:32;;;;;;;110.10;62.22;;;;;;;6.17;nan;96172.09;5045757;28;20232;-58
2022/12/31 03:07:00;;;;;;;101.40;60.13;;;;;;;6.07;nan;96159.44;5047893;28;20655;-59
2022/12/31 03:09:27;;;;;;;100.13;56.22;;;;;;;5.94;nan;96160.25;5045923;28;20722;-59
2022/12/31 03:14:38;;;;;;;83.47;46.88;;;;;;;5.79;nan;96155.16;5045905;28;20983;-59
2022/12/31 03:17:06;;;;;;;84.07;48.35;;;;;;;5.77;nan;96146.75;5046128;28;20694;-59
2022/12/31 03:22:29;;;;;;;84.20;46.35;;;;;;;5.55;nan;96155.09;5045453;28;20942;-60
2022/12/31 03:27:47;;;;;;;88.75;46.17;;;;;;;5.53;nan;96155.06;5046053;28;20723;-59
2022/12/31 03:30:15;;;;;;;91.25;48.33;;;;;;;5.46;nan;96158.41;5046067;28;20706;-58
2022/12/31 03:32:45;;;;;;;79.88;46.20;;;;;;;5.41;nan;96163.47;5046116;28;20210;-58
2022/12/31 03:35:13;;;;;;;92.25;47.15;;;;;;;5.34;nan;96161.75;5045242;28;20302;-58
2022/12/31 03:37:40;;;;;;;81.30;44.08;;;;;;;5.22;nan;96161.66;5045604;28;20284;-59
2022/12/31 03:40:09;;;;;;;85.03;44.13;;;;;;;5.17;nan;96163.34;5046171;28;20768;-58
2022/12/31 03:42:36;;;;;;;75.93;44.55;;;;;;;5.17;nan;96157.47;5047065;28;20213;-58
2022/12/31 03:45:03;;;;;;;80.88;46.75;;;;;;;5.07;nan;96151.53;5045900;28;20750;-58
2022/12/31 03:47:30;;;;;;;75.25;43.60;;;;;;;5.20;nan;96165.84;5046628;28;20243;-61
2022/12/31 03:49:58;;;;;;;79.70;45.10;;;;;;;5.21;nan;96159.97;5045914;28;20723;-58
2022/12/31 03:52:25;;;;;;;80.20;43.05;;;;;;;5.21;nan;96167.53;5046231;28;20209;-59
2022/12/31 03:54:52;;;;;;;78.00;44.38;;;;;;;5.11;nan;96170.88;5045844;28;20270;-58
2022/12/31 03:57:18;;;;;;;79.85;43.88;;;;;;;5.08;nan;96173.38;5045056;28;20205;-60
2022/12/31 03:59:45;;;;;;;76.78;42.90;;;;;;;5.09;nan;96175.06;5045715;28;20220;-58
2022/12/31 04:02:12;;;;;;;77.47;42.20;;;;;;;5.12;nan;96180.97;5046393;28;20202;-58
2022/12/31 04:04:38;;;;;;;76.70;42.53;;;;;;;5.11;nan;96178.44;5046254;28;20266;-60
2022/12/31 04:07:07;;;;;;;74.68;42.20;;;;;;;5.09;nan;96164.97;5046963;28;20201;-58
2022/12/31 04:09:33;;;;;;;78.38;40.20;;;;;;;5.06;nan;96185.13;5045748;28;20625;-58
2022/12/31 04:12:00;;;;;;;77.10;42.15;;;;;;;4.88;nan;96182.50;5046401;28;20263;-61
2022/12/31 04:14:27;;;;;;;71.32;41.88;;;;;;;4.74;nan;96184.91;5045489;28;20206;-60
2022/12/31 04:16:54;;;;;;;71.05;41.15;;;;;;;4.75;nan;96189.94;5046983;28;20263;-58
2022/12/31 04:19:20;;;;;;;80.55;43.03;;;;;;;4.67;nan;96191.59;5046691;28;20198;-59
2022/12/31 04:21:47;;;;;;;70.93;41.00;;;;;;;4.78;nan;96181.56;5046156;28;20233;-60
2022/12/31 04:24:15;;;;;;;68.15;40.47;;;;;;;4.75;nan;96189.09;5046886;28;20217;-59
2022/12/31 04:26:42;;;;;;;80.13;41.53;;;;;;;4.67;nan;96184.03;5045572;28;20777;-58
2022/12/31 04:29:10;;;;;;;77.93;42.45;;;;;;;4.74;nan;96188.25;5046783;28;20401;-58
2022/12/31 04:31:36;;;;;;;85.10;40.63;;;;;;;4.71;nan;96187.41;5046493;28;20210;-58
2022/12/31 04:34:03;;;;;;;85.13;42.88;;;;;;;4.66;nan;96194.94;5046857;28;20925;-57
2022/12/31 04:36:30;;;;;;;72.80;39.80;;;;;;;4.65;nan;96198.28;5045030;28;20672;-58
2022/12/31 04:38:57;;;;;;;77.60;41.83;;;;;;;4.64;nan;96199.13;5047864;28;20646;-59
2022/12/31 04:41:26;;;;;;;89.38;42.03;;;;;;;4.69;nan;96200.00;5047890;28;20883;-61
2022/12/31 04:43:54;;;;;;;81.18;43.63;;;;;;;4.93;nan;96209.41;5049559;28;20746;-58
2022/12/31 04:46:22;;;;;;;76.22;42.10;;;;;;;4.85;nan;96210.19;5048319;28;20206;-59
2022/12/31 04:48:49;;;;;;;76.72;42.55;;;;;;;4.57;nan;96209.97;5048897;28;20848;-58
2022/12/31 04:51:16;;;;;;;81.50;42.67;;;;;;;4.55;nan;96211.63;5048040;28;20683;-57
2022/12/31 04:53:43;;;;;;;86.75;43.53;;;;;;;4.48;nan;96214.91;5049781;28;20209;-59
2022/12/31 04:56:10;;;;;;;88.68;44.25;;;;;;;4.48;nan;96214.91;5046749;28;20209;-59
2022/12/31 04:58:39;;;;;;;74.72;42.45;;;;;;;4.46;nan;96209.03;5049524;28;20205;-59
2022/12/31 05:01:06;;;;;;;76.50;41.63;;;;;;;4.30;nan;96174.50;5048949;28;20209;-59
2022/12/31 05:03:34;;;;;;;66.70;40.03;;;;;;;4.46;nan;96214.06;5047844;28;20611;-59
2022/12/31 05:06:02;;;;;;;71.03;39.40;;;;;;;4.49;nan;96226.69;5047899;28;20255;-58
2022/12/31 05:08:29;;;;;;;78.25;40.90;;;;;;;4.51;nan;96225.00;5049589;28;20220;-59
2022/12/31 05:10:55;;;;;;;78.07;43.00;;;;;;;4.46;nan;96224.13;5048986;28;20938;-58
2022/12/31 05:13:23;;;;;;;78.72;43.95;;;;;;;4.36;nan;96225.75;5048014;28;20275;-58
2022/12/31 05:15:51;;;;;;;83.53;45.03;;;;;;;4.40;nan;96229.13;5047741;28;20210;-59
2022/12/31 05:18:18;;;;;;;80.28;44.95;;;;;;;4.35;nan;96235.78;5048586;28;20201;-59
2022/12/31 05:20:45;;;;;;;87.50;45.90;;;;;;;4.43;nan;96239.22;5047782;28;20266;-60
2022/12/31 05:23:12;;;;;;;81.70;43.95;;;;;;;4.45;nan;96247.63;5047835;28;20221;-59
2022/12/31 05:25:38;;;;;;;77.32;46.13;;;;;;;4.45;nan;96245.13;5047131;28;20209;-59
2022/12/31 05:28:05;;;;;;;85.95;43.97;;;;;;;4.45;nan;96247.63;5048717;28;20643;-59
2022/12/31 05:30:32;;;;;;;83.53;45.28;;;;;;;4.40;nan;96251.78;5048739;28;20306;-59
2022/12/31 05:33:00;;;;;;;85.47;42.58;;;;;;;4.27;nan;96255.00;5047952;28;20213;-59
2022/12/31 05:35:27;;;;;;;75.22;43.33;;;;;;;4.40;nan;96256.81;5047484;28;20205;-58
2022/12/31 05:37:54;;;;;;;78.57;40.80;;;;;;;4.33;nan;96255.91;5048287;28;20292;-59
2022/12/31 05:40:21;;;;;;;74.82;43.40;;;;;;;4.27;nan;96255.84;5048130;28;20717;-58
2022/12/31 05:42:49;;;;;;;77.85;42.10;;;;;;;4.14;nan;96264.09;5048097;28;20209;-59
2022/12/31 05:45:17;;;;;;;82.37;42.50;;;;;;;4.04;nan;96259.78;5046289;28;20206;-58
2022/12/31 05:47:44;;;;;;;74.47;41.85;;;;;;;4.06;nan;96260.66;5047885;28;20667;-58
2022/12/31 05:50:15;;;;;;;84.03;43.67;;;;;;;4.15;nan;96264.94;5047505;28;20903;-58
2022/12/31 05:52:42;;;;;;;71.40;42.40;;;;;;;4.00;nan;96261.44;5047754;28;20210;-62
2022/12/31 05:55:09;;;;;;;80.53;41.28;;;;;;;4.10;nan;96273.28;5046356;28;20201;-59
2022/12/31 05:57:36;;;;;;;81.93;42.97;;;;;;;4.20;nan;96270.88;5048714;28;20389;-59
2022/12/31 06:00:04;;;;;;;73.15;40.80;;;;;;;4.23;nan;96263.34;5048146;28;20709;-59
2022/12/31 06:02:31;;;;;;;85.93;41.85;;;;;;;4.33;nan;96265.97;5047765;28;20198;-59
2022/12/31 06:04:58;;;;;;;82.85;41.47;;;;;;;4.44;nan;96271.13;5047016;28;20254;-59
2022/12/31 06:07:27;;;;;;;79.35;41.45;;;;;;;4.50;nan;96276.19;5046937;28;20209;-59
2022/12/31 06:09:53;;;;;;;77.40;41.63;;;;;;;4.53;nan;96273.72;5048079;28;20229;-59
2022/12/31 06:12:20;;;;;;;70.72;37.75;;;;;;;4.64;nan;96266.25;5047869;28;20617;-58
2022/12/31 06:14:47;;;;;;;72.00;39.28;;;;;;;4.77;nan;96273.91;5046515;28;20593;-59
2022/12/31 06:17:14;;;;;;;74.82;37.00;;;;;;;4.84;nan;96279.00;5046637;28;21207;-59
2022/12/31 06:19:40;;;;;;;63.65;37.47;;;;;;;4.92;nan;96282.44;5048311;28;20209;-59
2022/12/31 06:22:07;;;;;;;75.07;38.45;;;;;;;5.02;nan;96284.19;5047807;28;21365;-58
2022/12/31 06:24:35;;;;;;;65.07;35.92;;;;;;;5.06;nan;96280.84;5046727;28;20210;-59
2022/12/31 06:27:02;;;;;;;74.43;38.70;;;;;;;5.15;nan;96285.13;5047372;28;20201;-61
2022/12/31 06:29:28;;;;;;;75.72;37.03;;;;;;;5.13;nan;96288.47;5047163;28;20667;-59
2022/12/31 06:31:55;;;;;;;72.70;38.85;;;;;;;5.20;nan;96301.13;5044917;28;21724;-60
2022/12/31 06:34:22;;;;;;;70.88;39.33;;;;;;;5.26;nan;96306.19;5045630;28;20552;-59
2022/12/31 06:36:48;;;;;;;64.82;36.30;;;;;;;5.27;nan;96311.25;5046559;28;20216;-58
2022/12/31 06:39:15;;;;;;;69.38;36.03;;;;;;;5.38;nan;96314.69;5046576;28;22548;-59
2022/12/31 06:41:43;;;;;;;61.38;36.88;;;;;;;5.28;nan;96291.91;5045766;28;20263;-59
2022/12/31 06:44:10;;;;;;;61.28;35.30;;;;;;;5.46;nan;96317.25;5046343;28;20206;-60
2022/12/31 06:46:37;;;;;;;69.63;36.63;;;;;;;5.56;nan;96320.66;5046410;28;20961;-59
2022/12/31 06:49:03;;;;;;;79.18;36.67;;;;;;;5.58;nan;96321.53;5046911;28;20210;-58
2022/12/31 06:51:30;;;;;;;69.70;38.15;;;;;;;5.51;nan;96294.56;5045923;28;20228;-59
2022/12/31 06:53:57;;;;;;;77.40;35.55;;;;;;;5.82;nan;96321.66;5046746;28;20228;-58
2022/12/31 06:56:27;;;;;;;64.85;36.78;;;;;;;5.90;nan;96325.09;5045813;28;20241;-58
2022/12/31 06:58:56;;;;;;;63.88;36.90;;;;;;;5.88;nan;96324.22;5046479;28;20205;-58
2022/12/31 07:01:36;;;;;;;64.97;37.33;;;;;;;5.92;nan;96332.69;5045397;28;20222;-59
2022/12/31 07:04:24;;;;;;;62.17;36.58;;;;;;;5.85;nan;96330.91;5046897;28;20205;-58
2022/12/31 07:06:55;;;;;;;58.47;35.22;;;;;;;5.89;nan;96328.47;5046779;28;20727;-58
2022/12/31 07:09:31;;;;;;;70.05;36.75;;;;;;;5.99;nan;96332.69;5046848;28;20198;-58
2022/12/31 07:12:06;;;;;;;67.70;38.90;;;;;;;6.21;nan;96331.09;5045433;28;20204;-60
2022/12/31 07:14:40;;;;;;;77.32;40.65;;;;;;;6.42;nan;96342.97;5046864;28;20790;-58
2022/12/31 07:17:27;;;;;;;68.40;38.47;;;;;;;6.71;nan;96337.97;5045827;28;20209;-59
2022/12/31 07:20:01;;;;;;;68.18;36.85;;;;;;;7.25;nan;96347.28;5045751;28;20220;-59
2022/12/31 07:22:28;;;;;;;66.40;37.60;;;;;;;8.52;nan;96341.06;5045317;28;20598;-59
2022/12/31 07:24:55;;;;;;;66.15;37.47;;;;;;;10.64;nan;96346.72;5046231;28;20667;-58
2022/12/31 07:27:42;;;;;;;63.28;37.40;;;;;;;12.89;nan;96340.19;5045862;28;20225;-58
2022/12/31 07:30:14;;;;;;;73.40;39.20;;;;;;;13.13;nan;96341.34;5046490;28;20217;-61
2022/12/31 07:33:17;;;;;;;70.95;40.15;;;;;;;12.60;nan;96340.00;5045681;28;20658;-59
2022/12/31 07:35:51;;;;;;;69.03;37.90;;;;;;;12.39;nan;96345.50;5046205;28;20217;-59
2022/12/31 07:38:29;;;;;;;70.30;40.75;;;;;;;12.77;nan;96331.97;5046054;28;20209;-58
2022/12/31 07:41:07;;;;;;;76.28;40.95;;;;;;;13.00;nan;96344.22;5046085;28;20583;-59
2022/12/31 07:43:40;;;;;;;71.10;40.78;;;;;;;13.82;nan;96344.81;5045887;28;20212;-59
2022/12/31 07:46:17;;;;;;;69.32;41.30;;;;;;;14.49;nan;96348.97;5046701;28;20208;-59
2022/12/31 07:48:44;;;;;;;66.78;40.95;;;;;;;14.58;nan;96353.00;5046655;28;20205;-59
2022/12/31 07:51:11;;;;;;;65.85;39.58;;;;;;;14.56;nan;96353.03;5046089;28;20229;-59
2022/12/31 07:53:38;;;;;;;63.10;39.45;;;;;;;14.55;nan;96350.50;5045572;28;20658;-59
2022/12/31 07:56:07;;;;;;;72.38;44.10;;;;;;;14.39;nan;96354.34;5046396;28;20228;-59
2022/12/31 07:58:50;;;;;;;64.18;42.65;;;;;;;14.76;nan;96349.06;5045227;28;20254;-62
2022/12/31 08:01:29;;;;;;;79.57;44.50;;;;;;;14.76;nan;96349.06;5044854;28;21823;-58
2022/12/31 08:04:03;;;;;;;68.13;43.17;;;;;;;16.33;nan;96349.91;5044739;28;20679;-59
2022/12/31 08:06:39;;;;;;;69.50;43.15;;;;;;;16.48;nan;96345.97;5046295;28;20216;-59
2022/12/31 08:09:24;;;;;;;74.82;43.35;;;;;;;16.75;nan;96350.13;5046068;28;20201;-60
2022/12/31 08:11:56;;;;;;;74.53;42.83;;;;;;;16.45;nan;96346.06;5044513;28;20712;-59
2022/12/31 08:14:24;;;;;;;66.15;42.13;;;;;;;16.14;nan;96347.16;5049856;28;20205;-59
2022/12/31 08:16:52;;;;;;;64.78;40.53;;;;;;;15.92;nan;96343.66;5049566;28;20206;-59
2022/12/31 08:19:24;;;;;;;51.08;35.97;;;;;;;15.63;nan;96340.34;5048890;28;20202;-59
2022/12/31 08:22:06;;;;;;;57.70;40.20;;;;;;;15.37;nan;96342.88;5049134;28;20318;-59
2022/12/31 08:24:47;;;;;;;57.80;37.85;;;;;;;15.04;nan;96354.19;5049623;28;20209;-59
2022/12/31 08:27:23;;;;;;;48.15;30.42;;;;;;;14.59;nan;96358.06;5049542;28;20210;-59
2022/12/31 08:29:59;;;;;;;46.90;30.38;;;;;;;14.21;nan;96356.53;5049746;28;20204;-61
2022/12/31 08:32:36;;;;;;;48.05;30.85;;;;;;;13.76;nan;96347.50;5049189;28;20205;-59
2022/12/31 08:35:14;;;;;;;49.70;32.90;;;;;;;13.47;nan;96351.63;5049248;28;20917;-59
2022/12/31 08:37:44;;;;;;;49.72;32.10;;;;;;;13.45;nan;96358.50;5048556;28;20517;-60
2022/12/31 08:40:19;;;;;;;57.50;37.78;;;;;;;13.37;nan;96362.09;5048273;28;20205;-59
2022/12/31 08:43:01;;;;;;;61.83;39.20;;;;;;;13.32;nan;96362.22;5048320;28;20286;-59
2022/12/31 08:45:36;;;;;;;68.85;40.60;;;;;;;13.43;nan;96354.28;5048786;28;20213;-59
2022/12/31 08:48:18;;;;;;;73.10;45.30;;;;;;;13.48;nan;96353.31;5050384;28;20205;-61
2022/12/31 08:50:46;;;;;;;71.30;43.05;;;;;;;13.55;nan;96347.19;5048400;28;20229;-61
2022/12/31 08:53:13;;;;;;;61.47;38.45;;;;;;;13.58;nan;96347.13;5048580;28;20721;-60
2022/12/31 08:55:41;;;;;;;60.30;37.97;;;;;;;13.71;nan;96344.22;5047925;28;20205;-59
2022/12/31 08:58:22;;;;;;;61.65;38.75;;;;;;;13.87;nan;96348.91;5049779;28;20209;-60
2022/12/31 09:00:53;;;;;;;56.97;39.47;;;;;;;13.96;nan;96356.34;5048326;28;20567;-60
2022/12/31 09:03:38;;;;;;;58.78;36.92;;;;;;;13.88;nan;96342.91;5048600;28;20682;-59
2022/12/31 09:06:12;;;;;;;58.45;38.90;;;;;;;13.83;nan;96341.38;5048679;28;20211;-58
2022/12/31 09:08:49;;;;;;;63.85;40.15;;;;;;;13.93;nan;96340.25;5049582;28;20274;-59
2022/12/31 09:11:21;;;;;;;63.42;39.92;;;;;;;13.98;nan;96328.19;5048902;28;20225;-63
2022/12/31 09:14:05;;;;;;;69.50;42.10;;;;;;;14.10;nan;96340.66;5048397;28;20197;-59
2022/12/31 09:16:42;;;;;;;65.28;39.70;;;;;;;14.26;nan;96334.22;5049214;28;20473;-59
2022/12/31 09:19:10;;;;;;;65.07;39.78;;;;;;;14.35;nan;96338.25;5048552;28;20201;-58
2022/12/31 09:21:39;;;;;;;62.10;36.92;;;;;;;14.27;nan;96341.03;5047868;28;20715;-60
2022/12/31 09:24:07;;;;;;;64.05;35.58;;;;;;;14.35;nan;96337.44;5047573;28;20634;-61
2022/12/31 09:26:47;;;;;;;61.42;39.60;;;;;;;14.29;nan;96326.47;5048469;28;20736;-60
2022/12/31 09:29:28;;;;;;;59.35;36.35;;;;;;;14.28;nan;96327.34;5048540;28;20213;-60
2022/12/31 09:32:03;;;;;;;56.22;37.20;;;;;;;14.43;nan;96325.28;5047813;28;20232;-58
2022/12/31 09:34:42;;;;;;;63.25;37.03;;;;;;;14.32;nan;96311.94;5047897;28;20653;-58
2022/12/31 09:37:17;;;;;;;62.38;38.13;;;;;;;14.22;nan;96307.06;5048436;28;20209;-59
2022/12/31 09:39:46;;;;;;;62.90;39.35;;;;;;;14.11;nan;96303.13;5047287;28;20205;-61
2022/12/31 09:42:54;;;;;;;57.78;39.08;;;;;;;13.94;nan;96295.91;5042435;28;22782;-59
2022/12/31 09:45:42;;;;;;;66.85;40.47;;;;;;;13.74;nan;96288.78;5043084;28;20671;-57
2022/12/31 09:48:51;;;;;;;62.55;40.65;;;;;;;13.89;nan;96288.38;5047027;28;20209;-59
2022/12/31 09:51:28;;;;;;;62.88;40.30;;;;;;;14.08;nan;96283.63;5042461;28;20225;-58
2022/12/31 09:54:38;;;;;;;65.22;41.17;;;;;;;13.94;nan;96283.13;5046820;28;20208;-57
2022/12/31 09:57:25;;;;;;;61.80;41.95;;;;;;;13.75;nan;96279.41;5034624;28;20217;-59
2022/12/31 10:00:00;;;;;;;66.00;39.63;;;;;;;13.51;nan;96289.38;5047306;28;20302;-61
2022/12/31 10:02:57;;;;;;;56.90;38.90;;;;;;;13.11;nan;96275.91;5046304;28;20262;-59
2022/12/31 10:05:52;;;;;;;61.10;38.55;;;;;;;12.94;nan;96276.28;5047572;28;20619;-59
2022/12/31 10:08:37;;;;;;;60.30;37.70;;;;;;;13.01;nan;96275.28;5047462;28;20209;-59
2022/12/31 10:11:06;;;;;;;66.20;39.33;;;;;;;13.15;nan;96269.84;5047499;28;20228;-61
2022/12/31 10:13:46;;;;;;;95.72;54.90;;;;;;;13.20;nan;96265.50;5047213;28;20292;-59
2022/12/31 10:16:32;;;;;;;64.75;40.42;;;;;;;13.31;nan;96262.69;5047815;28;20201;-59
2022/12/31 10:19:30;;;;;;;58.53;37.35;;;;;;;13.26;nan;96255.13;5048297;28;22239;-59
2022/12/31 10:22:10;;;;;;;68.30;37.35;;;;;;;13.01;nan;96254.03;5045839;28;20677;-59
2022/12/31 10:24:50;;;;;;;62.47;36.83;;;;;;;12.56;nan;96252.50;5047625;28;20205;-57
2022/12/31 10:27:33;;;;;;;55.72;34.97;;;;;;;12.40;nan;96247.75;5047474;28;20308;-59
2022/12/31 10:30:12;;;;;;;54.60;33.85;;;;;;;12.61;nan;96244.78;5048035;28;20198;-59
2022/12/31 10:32:44;;;;;;;53.88;34.88;;;;;;;12.77;nan;96246.09;5045519;28;20282;-61
2022/12/31 10:35:32;;;;;;;54.67;35.22;;;;;;;12.85;nan;96244.19;5046332;28;20308;-59
2022/12/31 10:38:10;;;;;;;53.35;34.42;;;;;;;12.86;nan;96240.78;5046787;28;20217;-61
2022/12/31 10:41:16;;;;;;;53.88;32.67;;;;;;;13.00;nan;96239.59;5047042;28;20210;-60
2022/12/31 10:44:17;;;;;;;48.53;30.23;;;;;;;12.86;nan;96240.78;5045566;28;20480;-59
2022/12/31 10:47:20;;;;;;;56.47;30.75;;;;;;;12.75;nan;96241.88;5047540;28;20201;-60
2022/12/31 10:50:13;;;;;;;46.08;29.10;;;;;;;12.83;nan;96232.34;5047252;28;20211;-60
2022/12/31 10:53:10;;;;;;;47.40;30.38;;;;;;;12.80;nan;96234.97;5045119;28;20257;-59
2022/12/31 10:56:15;;;;;;;44.67;29.80;;;;;;;12.93;nan;96226.97;5029435;28;20198;-59
2022/12/31 10:59:03;;;;;;;44.25;30.60;;;;;;;13.20;nan;96229.75;5046627;28;20274;-59
2022/12/31 11:01:40;;;;;;;45.72;29.92;;;;;;;13.44;nan;96229.13;5047607;28;20205;-59
2022/12/31 11:04:40;;;;;;;42.20;29.30;;;;;;;13.59;nan;96233.84;5044082;28;20212;-60
2022/12/31 11:07:47;;;;;;;43.83;29.15;;;;;;;13.85;nan;96224.63;5046741;28;20222;-59
2022/12/31 11:10:41;;;;;;;44.97;29.67;;;;;;;13.95;nan;96226.03;5046189;28;20277;-60
2022/12/31 11:13:37;;;;;;;47.88;32.17;;;;;;;14.02;nan;96214.78;5045900;28;20197;-59
2022/12/31 11:16:30;;;;;;;48.28;29.27;;;;;;;14.18;nan;96218.53;5046989;28;20560;-60
2022/12/31 11:19:02;;;;;;;47.28;30.90;;;;;;;14.27;nan;96218.28;5046202;28;20569;-63
2022/12/31 11:21:51;;;;;;;40.78;29.27;;;;;;;14.36;nan;96211.19;5046759;28;20233;-58
2022/12/31 11:24:31;;;;;;;44.50;30.05;;;;;;;14.43;nan;96205.06;5043349;28;20213;-58
2022/12/31 11:27:16;;;;;;;44.15;30.52;;;;;;;14.50;nan;96202.28;5046075;28;20232;-58
2022/12/31 11:30:00;;;;;;;42.78;30.58;;;;;;;14.42;nan;96170.97;5046347;28;20209;-59
2022/12/31 11:32:39;;;;;;;43.22;30.73;;;;;;;14.63;nan;96200.16;5046270;28;20265;-59
2022/12/31 11:35:27;;;;;;;48.70;31.63;;;;;;;14.60;nan;96207.94;5045824;28;20722;-58
2022/12/31 11:38:04;;;;;;;49.45;31.15;;;;;;;14.65;nan;96200.94;5046466;28;21349;-60
2022/12/31 11:40:43;;;;;;;50.00;32.38;;;;;;;14.63;nan;96195.03;5046970;28;20213;-59
2022/12/31 11:43:21;;;;;;;54.88;30.40;;;;;;;14.57;nan;96187.59;5046098;28;20201;-59
2022/12/31 11:46:08;;;;;;;46.20;32.25;;;;;;;14.58;nan;96187.53;5046144;28;20205;-62
2022/12/31 11:48:41;;;;;;;42.53;31.65;;;;;;;14.56;nan;96179.06;5049702;28;20252;-60
2022/12/31 11:51:25;;;;;;;43.45;30.80;;;;;;;14.65;nan;96183.03;5049631;28;20225;-60
2022/12/31 11:54:14;;;;;;;43.35;31.27;;;;;;;14.64;nan;96178.81;5048958;28;20206;-57
2022/12/31 11:56:46;;;;;;;47.67;31.23;;;;;;;14.61;nan;96181.47;5049708;28;21157;-61
2022/12/31 11:59:14;;;;;;;46.35;31.48;;;;;;;14.56;nan;96183.34;5049971;28;20206;-58
2022/12/31 12:01:52;;;;;;;42.80;29.77;;;;;;;14.49;nan;96190.38;5050008;28;21184;-59
2022/12/31 12:04:19;;;;;;;51.95;31.30;;;;;;;14.51;nan;96185.22;5048965;28;20701;-61
2022/12/31 12:06:46;;;;;;;47.72;32.92;;;;;;;14.50;nan;96194.59;5048499;28;20260;-60
2022/12/31 12:09:16;;;;;;;44.17;29.95;;;;;;;14.48;nan;96190.41;5050424;28;21330;-61
2022/12/31 12:11:43;;;;;;;42.20;30.58;;;;;;;14.48;nan;96195.53;5049118;28;20257;-60
2022/12/31 12:14:20;;;;;;;42.40;29.10;;;;;;;14.46;nan;96192.19;5049219;28;20216;-59
2022/12/31 12:16:53;;;;;;;43.55;28.98;;;;;;;14.48;nan;96195.53;5049614;28;20713;-59
2022/12/31 12:19:20;;;;;;;40.90;28.77;;;;;;;14.42;nan;96195.72;5050081;28;20213;-61
2022/12/31 12:21:49;;;;;;;46.65;30.00;;;;;;;14.38;nan;96194.09;5050050;28;20237;-58